Time;durP1;ratioP1;P1;durP2;ratioP2;P2;SDS_P1;SDS_P2;PMS_P1;PMS_P2;Temp;Humidity;BMP_temperature;BMP_pressure;BME280_temperature;BME280_humidity;BME280_pressure;Samples;Min_cycle;Max_cycle;Signal;HPM_P1;HPM_P2
2022/08/16 00:00:27;;;;;;;9.90;7.60;;;;;;;21.18;69.62;99407.00;5051502;28;20461;-83
2022/08/16 00:02:55;;;;;;;11.23;8.23;;;;;;;21.17;69.96;99412.66;5041816;28;20883;-84
2022/08/16 00:05:24;;;;;;;10.27;7.70;;;;;;;21.21;70.95;99401.09;5040921;28;20509;-85
2022/08/16 00:07:51;;;;;;;9.43;8.33;;;;;;;21.13;71.06;99400.59;5041716;28;20426;-84
2022/08/16 00:10:18;;;;;;;15.40;8.77;;;;;;;21.18;70.48;99389.84;5042496;28;20438;-84
2022/08/16 00:12:45;;;;;;;11.13;8.77;;;;;;;21.17;69.28;99388.19;5064816;28;20445;-84
2022/08/16 00:15:15;;;;;;;8.87;7.83;;;;;;;21.19;70.80;99386.88;5057751;28;20486;-84
2022/08/16 00:17:42;;;;;;;9.63;8.50;;;;;;;21.17;69.27;99383.59;5054352;28;20444;-84
2022/08/16 00:20:10;;;;;;;12.63;8.77;;;;;;;21.23;69.70;99393.53;5044651;28;20981;-84
2022/08/16 00:22:42;;;;;;;10.30;8.27;;;;;;;21.24;69.12;99389.75;5063793;28;20520;-84
2022/08/16 00:25:12;;;;;;;9.40;8.50;;;;;;;21.00;70.06;99391.53;5052049;28;20499;-84
2022/08/16 00:27:39;;;;;;;9.77;8.20;;;;;;;20.88;70.46;99406.97;5063333;28;20506;-85
2022/08/16 00:30:07;;;;;;;9.17;8.27;;;;;;;20.83;71.58;99399.53;5058673;28;20496;-86
2022/08/16 00:32:38;;;;;;;8.77;7.87;;;;;;;20.78;72.59;99401.25;5065047;28;20461;-86
2022/08/16 00:35:05;;;;;;;9.53;8.63;;;;;;;20.77;72.89;99400.44;5064249;28;20487;-85
2022/08/16 00:37:32;;;;;;;9.03;8.13;;;;;;;20.85;72.90;99396.59;5063736;28;20481;-87
2022/08/16 00:39:58;;;;;;;11.70;8.40;;;;;;;20.88;72.38;99398.81;5052758;28;20446;-86
2022/08/16 00:42:27;;;;;;;11.10;9.27;;;;;;;20.65;73.26;99396.81;5064034;28;20560;-87
2022/08/16 00:45:00;;;;;;;11.93;9.07;;;;;;;20.62;73.97;99395.41;5062722;28;20484;-86
2022/08/16 00:47:27;;;;;;;9.80;8.53;;;;;;;20.62;73.39;99399.97;5044322;28;20549;-86
2022/08/16 00:49:55;;;;;;;11.83;8.90;;;;;;;20.59;73.29;99387.66;5044736;28;20454;-86
2022/08/16 00:52:22;;;;;;;12.63;8.37;;;;;;;20.63;72.87;99394.31;5044100;28;20474;-85
2022/08/16 00:54:49;;;;;;;9.60;8.20;;;;;;;20.73;72.57;99401.94;5047313;28;20625;-85
2022/08/16 00:57:15;;;;;;;8.67;7.70;;;;;;;20.76;71.95;99406.94;5063101;28;20511;-85
2022/08/16 00:59:42;;;;;;;8.63;7.57;;;;;;;20.75;72.98;99405.25;5063955;28;20541;-85
2022/08/16 01:02:09;;;;;;;9.07;8.17;;;;;;;20.81;73.00;99407.06;5051306;28;20502;-86
2022/08/16 01:04:36;;;;;;;9.20;7.37;;;;;;;20.82;73.14;99400.56;5046524;28;20521;-86
2022/08/16 01:07:06;;;;;;;8.00;7.30;;;;;;;20.77;72.75;99408.56;5061315;28;20520;-86
2022/08/16 01:09:34;;;;;;;8.47;7.47;;;;;;;20.74;73.25;99410.91;5045970;28;20446;-85
2022/08/16 01:12:02;;;;;;;10.10;7.30;;;;;;;20.54;73.37;99398.38;5057473;28;20532;-84
2022/08/16 01:14:31;;;;;;;9.63;8.03;;;;;;;20.47;74.23;99413.94;5053374;28;20507;-84
2022/08/16 01:16:59;;;;;;;8.57;7.00;;;;;;;20.26;74.70;99412.50;5061801;28;20564;-84
2022/08/16 01:19:29;;;;;;;12.37;7.67;;;;;;;20.08;74.33;99415.97;5063021;28;20441;-85
2022/08/16 01:21:59;;;;;;;9.70;7.37;;;;;;;20.29;73.31;99415.59;5062817;28;20489;-86
2022/08/16 01:24:30;;;;;;;12.77;7.60;;;;;;;20.32;73.07;99411.56;5062499;28;20488;-84
2022/08/16 01:27:02;;;;;;;8.83;8.00;;;;;;;20.42;71.26;99414.59;5056169;28;20573;-84
2022/08/16 01:29:33;;;;;;;8.90;8.03;;;;;;;20.54;70.43;99419.28;5043019;28;20486;-84
2022/08/16 01:32:00;;;;;;;8.73;7.23;;;;;;;20.55;70.88;99419.03;5055571;28;20519;-83
2022/08/16 01:34:27;;;;;;;7.67;6.73;;;;;;;20.53;70.93;99410.28;5063575;28;20825;-84
2022/08/16 01:37:03;;;;;;;10.13;7.80;;;;;;;20.62;69.56;99411.69;5049020;28;20793;-84
2022/08/16 01:39:31;;;;;;;7.63;6.93;;;;;;;20.72;69.57;99408.44;5061423;28;20456;-83
2022/08/16 01:41:58;;;;;;;9.03;7.80;;;;;;;20.74;69.17;99408.22;5062681;28;20503;-83
2022/08/16 01:44:24;;;;;;;7.93;7.03;;;;;;;20.72;69.25;99405.72;5062091;28;20516;-83
2022/08/16 01:46:52;;;;;;;8.30;7.50;;;;;;;20.85;68.92;99407.44;5045310;28;20497;-84
2022/08/16 01:49:23;;;;;;;8.27;7.20;;;;;;;20.84;67.87;99409.31;5043934;28;20560;-84
2022/08/16 01:51:53;;;;;;;10.97;7.27;;;;;;;20.97;67.60;99413.78;5044001;28;20520;-85
2022/08/16 01:54:20;;;;;;;8.30;7.50;;;;;;;20.90;68.61;99423.06;5053389;28;20457;-85
2022/08/16 01:56:48;;;;;;;9.73;6.90;;;;;;;20.83;68.85;99417.69;5062217;28;20513;-84
2022/08/16 01:59:16;;;;;;;7.53;6.83;;;;;;;20.86;68.20;99419.97;5051436;28;20540;-84
2022/08/16 02:01:43;;;;;;;8.20;6.93;;;;;;;20.92;68.47;99420.94;5042694;28;20533;-85
2022/08/16 02:04:10;;;;;;;7.93;7.03;;;;;;;21.05;66.88;99431.63;5060052;28;20469;-83
2022/08/16 02:06:38;;;;;;;8.40;6.73;;;;;;;21.08;67.46;99420.31;5044534;28;20481;-82
2022/08/16 02:09:06;;;;;;;8.30;6.67;;;;;;;21.03;67.90;99422.88;5063088;28;20456;-83
2022/08/16 02:11:33;;;;;;;7.77;7.00;;;;;;;21.07;66.70;99426.78;5061807;28;20480;-84
2022/08/16 02:14:01;;;;;;;7.67;6.97;;;;;;;21.05;70.06;99427.03;5049544;28;20867;-83
2022/08/16 02:16:28;;;;;;;7.63;6.80;;;;;;;20.87;71.20;99419.75;5058169;28;20550;-83
2022/08/16 02:18:54;;;;;;;8.90;7.50;;;;;;;20.69;72.24;99420.59;5062745;28;20964;-83
2022/08/16 02:21:21;;;;;;;9.07;6.90;;;;;;;20.73;70.69;99428.25;5061617;28;20468;-83
2022/08/16 02:23:49;;;;;;;7.70;6.93;;;;;;;20.64;71.07;99425.88;5062588;28;20481;-83
2022/08/16 02:26:15;;;;;;;7.57;6.83;;;;;;;20.65;72.05;99430.22;5053759;28;20485;-83
2022/08/16 02:28:42;;;;;;;8.50;7.60;;;;;;;20.56;72.62;99422.59;5043520;28;20453;-83
2022/08/16 02:31:13;;;;;;;7.87;6.93;;;;;;;20.74;71.44;99424.50;5049117;28;20556;-84
2022/08/16 02:33:40;;;;;;;8.20;7.20;;;;;;;20.67;71.65;99416.44;5058929;28;20450;-81
2022/08/16 02:36:07;;;;;;;8.60;6.60;;;;;;;20.86;71.77;99415.34;5044050;28;21070;-83
2022/08/16 02:38:34;;;;;;;9.93;7.27;;;;;;;20.82;72.35;99416.88;5052085;28;20449;-83
2022/08/16 02:41:02;;;;;;;7.83;6.90;;;;;;;20.92;71.19;99410.91;5050127;28;20472;-84
2022/08/16 02:43:30;;;;;;;8.93;7.13;;;;;;;20.91;71.66;99422.81;5062186;28;20468;-83
2022/08/16 02:45:58;;;;;;;6.77;6.20;;;;;;;20.96;70.73;99414.81;5060243;28;20580;-83
2022/08/16 02:48:29;;;;;;;7.67;6.97;;;;;;;21.00;69.91;99418.72;5049448;28;20445;-83
2022/08/16 02:50:56;;;;;;;8.00;7.20;;;;;;;21.11;69.52;99416.28;5058255;28;20488;-83
2022/08/16 02:53:23;;;;;;;7.03;6.33;;;;;;;21.09;67.75;99424.66;5057885;28;20442;-83
2022/08/16 02:55:50;;;;;;;7.87;6.97;;;;;;;21.06;69.33;99425.16;5050078;28;20508;-83
2022/08/16 02:58:16;;;;;;;6.60;6.10;;;;;;;21.17;68.54;99415.38;5062634;28;20449;-83
2022/08/16 03:00:43;;;;;;;7.50;6.60;;;;;;;21.07;67.52;99418.63;5057213;28;20890;-84
2022/08/16 03:03:10;;;;;;;6.67;6.07;;;;;;;21.19;66.90;99419.50;5043192;28;20468;-84
2022/08/16 03:05:38;;;;;;;7.27;6.23;;;;;;;21.28;65.20;99425.44;5062187;28;20476;-84
2022/08/16 03:08:04;;;;;;;8.33;5.50;;;;;;;21.25;66.29;99429.47;5058460;28;20470;-85
2022/08/16 03:10:31;;;;;;;6.93;6.23;;;;;;;21.31;65.62;99408.69;5064393;28;20491;-84
2022/08/16 03:12:58;;;;;;;6.53;5.83;;;;;;;21.35;65.29;99418.06;5061778;28;20472;-86
2022/08/16 03:15:25;;;;;;;6.50;5.90;;;;;;;21.34;64.82;99421.00;5050633;28;20454;-86
2022/08/16 03:17:52;;;;;;;7.07;6.37;;;;;;;21.28;65.10;99411.03;5054443;28;20441;-86
2022/08/16 03:20:19;;;;;;;6.53;5.33;;;;;;;21.26;64.83;99408.56;5047512;28;20489;-88
2022/08/16 03:22:47;;;;;;;6.60;6.00;;;;;;;21.26;64.85;99408.56;5044239;28;20445;-86
2022/08/16 03:25:16;;;;;;;6.23;5.60;;;;;;;21.35;65.40;99412.63;5041658;28;20531;-87
2022/08/16 03:27:43;;;;;;;6.00;5.40;;;;;;;21.31;65.06;99411.41;5052751;28;20441;-86
2022/08/16 03:30:12;;;;;;;6.47;5.77;;;;;;;21.33;65.20;99406.56;5060518;28;20485;-86
2022/08/16 03:32:39;;;;;;;7.60;6.83;;;;;;;21.19;65.40;99402.38;5062122;28;20441;-85
2022/08/16 03:35:07;;;;;;;6.57;5.97;;;;;;;21.24;65.52;99411.50;5062112;28;20481;-90
2022/08/16 03:37:34;;;;;;;7.73;5.80;;;;;;;21.16;66.33;99402.84;5060000;28;20877;-90
2022/08/16 03:40:02;;;;;;;7.00;6.30;;;;;;;21.08;66.39;99403.19;5061943;28;20449;-90
2022/08/16 03:42:28;;;;;;;8.13;6.93;;;;;;;21.03;67.39;99412.84;5049958;28;20478;-88
2022/08/16 03:44:55;;;;;;;6.70;6.10;;;;;;;21.00;67.07;99407.03;5056469;28;20476;-91
2022/08/16 03:47:22;;;;;;;8.40;5.80;;;;;;;21.03;66.92;99412.00;5064193;28;20962;-90
2022/08/16 03:49:49;;;;;;;9.40;6.87;;;;;;;21.04;67.12;99411.78;5052190;28;20445;-83
2022/08/16 03:52:15;;;;;;;9.20;6.57;;;;;;;20.94;67.54;99422.38;5060900;28;20496;-84
2022/08/16 03:54:42;;;;;;;6.40;5.80;;;;;;;20.84;67.35;99419.38;5063933;28;20486;-84
2022/08/16 03:57:10;;;;;;;7.97;6.90;;;;;;;20.85;67.19;99421.03;5058921;28;20592;-83
2022/08/16 03:59:37;;;;;;;9.03;6.57;;;;;;;20.91;66.73;99413.84;5063193;28;20935;-84
2022/08/16 04:02:04;;;;;;;7.70;6.50;;;;;;;20.83;66.81;99423.97;5065057;28;20505;-84
2022/08/16 04:04:31;;;;;;;10.60;6.70;;;;;;;20.79;67.29;99417.31;5055391;28;20449;-83
2022/08/16 04:06:57;;;;;;;6.53;5.93;;;;;;;20.74;67.58;99413.63;5059959;28;20480;-84
2022/08/16 04:09:24;;;;;;;10.53;7.10;;;;;;;20.65;67.25;99413.13;5064378;28;20465;-84
2022/08/16 04:11:51;;;;;;;10.70;6.50;;;;;;;20.61;68.69;99422.75;5064609;28;20548;-84
2022/08/16 04:14:19;;;;;;;7.67;6.97;;;;;;;20.58;67.48;99417.78;5063289;28;20476;-84
2022/08/16 04:16:45;;;;;;;7.30;6.60;;;;;;;20.61;68.04;99420.88;5064372;28;20484;-82
2022/08/16 04:19:12;;;;;;;7.93;6.90;;;;;;;20.55;68.08;99421.75;5062908;28;20471;-85
2022/08/16 04:21:39;;;;;;;7.43;6.70;;;;;;;20.55;68.90;99427.19;5064334;28;20468;-83
2022/08/16 04:24:06;;;;;;;6.90;6.30;;;;;;;20.48;68.18;99421.84;5063477;28;20849;-83
2022/08/16 04:26:33;;;;;;;9.30;6.97;;;;;;;20.53;68.53;99428.47;5057272;28;20481;-84
2022/08/16 04:29:00;;;;;;;6.90;6.20;;;;;;;20.59;67.69;99428.41;5061457;28;20489;-83
2022/08/16 04:31:28;;;;;;;7.00;6.30;;;;;;;20.67;67.34;99438.97;5059102;28;20488;-78
2022/08/16 04:33:58;;;;;;;7.70;6.27;;;;;;;20.64;67.19;99430.47;5059880;28;20478;-76
2022/08/16 04:36:24;;;;;;;9.37;6.70;;;;;;;20.82;67.13;99433.19;5058491;28;20535;-77
2022/08/16 04:38:51;;;;;;;9.43;6.80;;;;;;;20.87;67.03;99433.31;5057364;28;20463;-76
2022/08/16 04:41:18;;;;;;;12.17;6.47;;;;;;;20.88;67.33;99434.13;5063952;28;20485;-89
2022/08/16 04:43:44;;;;;;;8.77;6.47;;;;;;;20.93;66.32;99441.63;5054026;28;20499;-89
2022/08/16 04:46:12;;;;;;;7.20;6.50;;;;;;;20.99;65.94;99441.53;5048093;28;20483;-88
2022/08/16 04:48:41;;;;;;;7.93;6.47;;;;;;;21.14;65.51;99453.88;5059535;28;20452;-88
2022/08/16 04:51:07;;;;;;;7.30;6.23;;;;;;;20.86;66.47;99455.28;5054725;28;20864;-88
2022/08/16 04:53:34;;;;;;;9.67;6.53;;;;;;;21.10;66.18;99460.84;5064653;28;20473;-88
2022/08/16 04:56:01;;;;;;;8.03;6.60;;;;;;;21.07;65.98;99462.13;5050307;28;20504;-89
2022/08/16 04:58:30;;;;;;;6.93;6.23;;;;;;;21.19;65.48;99473.88;5063024;28;20480;-88
2022/08/16 05:00:57;;;;;;;7.17;6.47;;;;;;;21.22;64.64;99469.88;5063243;28;20842;-87
2022/08/16 05:03:23;;;;;;;9.03;6.57;;;;;;;21.35;64.76;99474.31;5053127;28;20514;-88
2022/08/16 05:05:52;;;;;;;9.03;6.67;;;;;;;21.64;63.87;99467.22;5045756;28;20477;-87
2022/08/16 05:08:18;;;;;;;6.87;6.17;;;;;;;22.45;61.07;99466.75;5045991;28;20434;-90
2022/08/16 05:10:45;;;;;;;6.53;5.83;;;;;;;23.46;58.12;99471.84;5059636;28;20487;-89
2022/08/16 05:13:12;;;;;;;10.17;6.20;;;;;;;24.13;55.10;99460.19;5065836;28;20462;-87
2022/08/16 05:15:38;;;;;;;5.60;5.10;;;;;;;24.74;53.30;99463.00;5054005;28;20503;-89
2022/08/16 05:18:05;;;;;;;6.10;5.33;;;;;;;25.10;51.88;99470.81;5063581;28;20827;-89
2022/08/16 05:20:32;;;;;;;5.80;5.30;;;;;;;26.02;49.15;99470.97;5052448;28;20473;-90
2022/08/16 05:23:00;;;;;;;5.93;5.33;;;;;;;26.19;48.64;99476.31;5045749;28;20459;-81
2022/08/16 05:25:27;;;;;;;5.40;4.90;;;;;;;26.84;47.00;99483.31;5046414;28;20508;-79
2022/08/16 05:27:56;;;;;;;6.10;5.50;;;;;;;26.29;49.02;99479.94;5057731;28;20469;-79
2022/08/16 05:30:23;;;;;;;6.60;5.33;;;;;;;27.01;46.39;99477.63;5042485;28;20477;-79
2022/08/16 05:32:50;;;;;;;9.73;5.53;;;;;;;27.15;45.86;99477.97;5043667;28;20795;-78
2022/08/16 05:35:17;;;;;;;8.03;5.50;;;;;;;27.28;45.24;99476.66;5041837;28;20487;-78
2022/08/16 05:37:44;;;;;;;5.37;4.87;;;;;;;28.33;42.92;99483.63;5043483;28;20488;-78
2022/08/16 05:40:14;;;;;;;6.30;5.70;;;;;;;28.55;42.19;99486.06;5046756;28;20470;-78
2022/08/16 05:42:40;;;;;;;6.90;5.27;;;;;;;27.86;43.50;99481.13;5062842;28;20536;-78
2022/08/16 05:45:08;;;;;;;6.37;5.33;;;;;;;27.41;44.69;99478.03;5062397;28;20456;-78
2022/08/16 05:47:35;;;;;;;6.20;5.60;;;;;;;28.11;42.81;99481.16;5063419;28;20476;-78
2022/08/16 05:50:02;;;;;;;6.23;5.73;;;;;;;27.83;43.59;99482.53;5062471;28;20429;-78
2022/08/16 05:52:29;;;;;;;5.77;5.27;;;;;;;27.70;44.17;99477.56;5062034;28;20511;-78
2022/08/16 05:54:55;;;;;;;7.80;5.30;;;;;;;28.73;41.90;99492.94;5062765;28;20833;-78
2022/08/16 05:57:24;;;;;;;8.60;5.33;;;;;;;28.59;42.08;99491.03;5061240;28;20996;-77
2022/08/16 05:59:51;;;;;;;5.50;5.00;;;;;;;28.12;43.04;99488.31;5059815;28;20469;-77
2022/08/16 06:02:17;;;;;;;5.70;5.20;;;;;;;30.22;38.29;99503.13;5060277;28;21210;-77
2022/08/16 06:04:44;;;;;;;5.93;4.83;;;;;;;31.04;36.75;99503.41;5059784;28;20487;-77
2022/08/16 06:07:11;;;;;;;5.40;4.90;;;;;;;31.02;36.71;99511.97;5059690;28;20939;-78
2022/08/16 06:09:38;;;;;;;5.73;5.00;;;;;;;30.11;37.95;99503.50;5050235;28;20474;-79
2022/08/16 06:12:05;;;;;;;6.60;5.37;;;;;;;28.88;40.95;99492.03;5040144;28;20478;-77
2022/08/16 06:14:34;;;;;;;5.70;5.20;;;;;;;29.94;38.55;99499.19;5042181;28;20464;-79
2022/08/16 06:17:00;;;;;;;7.53;5.27;;;;;;;29.42;39.84;99506.97;5059578;28;20538;-79
2022/08/16 06:19:27;;;;;;;4.80;4.40;;;;;;;30.83;37.07;99506.38;5059544;28;20930;-79
2022/08/16 06:21:53;;;;;;;6.57;4.90;;;;;;;30.23;38.03;99501.19;5045957;28;20779;-79
2022/08/16 06:24:20;;;;;;;6.60;5.50;;;;;;;29.47;39.78;99511.63;5044428;28;20757;-78
2022/08/16 06:26:47;;;;;;;5.70;5.20;;;;;;;29.82;39.49;99512.53;5056599;28;20487;-79
2022/08/16 06:29:13;;;;;;;6.10;5.50;;;;;;;28.96;40.45;99515.41;5039665;28;20598;-79
2022/08/16 06:31:41;;;;;;;7.60;4.80;;;;;;;29.52;39.57;99517.09;5038535;28;20948;-79
2022/08/16 06:34:08;;;;;;;5.60;4.70;;;;;;;29.33;40.02;99516.13;5059019;28;20437;-79
2022/08/16 06:36:35;;;;;;;6.07;5.13;;;;;;;29.31;39.75;99510.88;5059041;28;20477;-79
2022/08/16 06:39:01;;;;;;;6.20;5.13;;;;;;;31.21;36.69;99517.53;5052831;28;20441;-77
2022/08/16 06:41:28;;;;;;;6.17;5.57;;;;;;;30.66;37.23;99526.16;5048275;28;20492;-78
2022/08/16 06:43:56;;;;;;;6.07;5.50;;;;;;;30.84;37.19;99515.50;5058094;28;20512;-78
2022/08/16 06:46:25;;;;;;;5.40;4.83;;;;;;;31.63;35.82;99517.81;5044827;28;20488;-78
2022/08/16 06:48:53;;;;;;;5.70;5.10;;;;;;;31.64;35.13;99516.72;5057822;28;20489;-79
2022/08/16 06:51:21;;;;;;;6.30;5.03;;;;;;;32.43;34.22;99519.59;5055707;28;20533;-78
2022/08/16 06:53:47;;;;;;;5.87;5.27;;;;;;;32.55;33.74;99516.34;5061963;28;20433;-80
2022/08/16 06:56:14;;;;;;;6.53;5.10;;;;;;;32.61;33.69;99512.38;5060179;28;20497;-81
2022/08/16 06:58:41;;;;;;;5.57;4.70;;;;;;;32.02;35.10;99517.50;5061571;28;20454;-81
2022/08/16 07:01:07;;;;;;;5.87;5.33;;;;;;;31.88;34.81;99516.63;5060854;28;20477;-81
2022/08/16 07:03:34;;;;;;;6.03;5.53;;;;;;;30.77;37.12;99530.44;5061492;28;20448;-82
2022/08/16 07:06:03;;;;;;;7.30;5.80;;;;;;;31.69;35.24;99514.69;5061042;28;20481;-81
2022/08/16 07:08:29;;;;;;;5.87;5.13;;;;;;;31.32;36.40;99521.81;5062200;28;20430;-80
2022/08/16 07:10:57;;;;;;;6.23;5.20;;;;;;;31.60;35.27;99516.50;5060262;28;20480;-82
2022/08/16 07:13:24;;;;;;;7.80;6.43;;;;;;;31.55;35.66;99522.09;5062081;28;20437;-80
2022/08/16 07:15:51;;;;;;;6.87;6.17;;;;;;;30.88;37.24;99527.59;5060936;28;20477;-81
2022/08/16 07:18:20;;;;;;;6.00;5.20;;;;;;;31.91;36.47;99532.63;5061250;28;20445;-81
2022/08/16 07:20:46;;;;;;;6.40;5.37;;;;;;;32.04;35.29;99537.38;5063031;28;20469;-79
2022/08/16 07:23:14;;;;;;;6.53;5.80;;;;;;;30.32;37.95;99531.72;5066203;28;20457;-81
2022/08/16 07:25:42;;;;;;;6.13;5.47;;;;;;;28.90;42.11;99533.88;5064077;28;20463;-80
2022/08/16 07:28:09;;;;;;;6.30;5.70;;;;;;;29.95;38.97;99533.94;5065229;28;20512;-81
2022/08/16 07:30:37;;;;;;;7.17;6.47;;;;;;;30.36;38.48;99543.81;5063939;28;21045;-81
2022/08/16 07:33:04;;;;;;;8.47;6.17;;;;;;;30.79;37.85;99546.72;5065132;28;20587;-81
2022/08/16 07:35:31;;;;;;;7.40;6.67;;;;;;;29.67;39.87;99541.81;5065394;28;20465;-80
2022/08/16 07:37:58;;;;;;;6.33;5.40;;;;;;;31.25;37.29;99548.13;5065948;28;20460;-81
2022/08/16 07:40:27;;;;;;;7.33;5.30;;;;;;;31.82;35.40;99548.22;5064093;28;20437;-81
2022/08/16 07:42:53;;;;;;;5.90;5.40;;;;;;;31.35;36.63;99556.31;5065155;28;21076;-81
2022/08/16 07:45:20;;;;;;;7.40;5.57;;;;;;;31.20;36.61;99545.44;5064585;28;20453;-81
2022/08/16 07:47:47;;;;;;;6.53;5.73;;;;;;;30.33;38.70;99550.72;5065079;28;20480;-81
2022/08/16 07:50:15;;;;;;;6.70;6.00;;;;;;;31.02;37.93;99549.81;5064838;28;20969;-81
2022/08/16 07:52:42;;;;;;;5.90;5.40;;;;;;;32.94;34.91;99553.84;5065236;28;20434;-82
2022/08/16 07:55:10;;;;;;;6.23;5.57;;;;;;;33.87;32.62;99563.00;5063072;28;20538;-82
2022/08/16 07:57:38;;;;;;;7.67;5.80;;;;;;;31.79;34.90;99557.13;5064860;28;20438;-82
2022/08/16 08:00:06;;;;;;;6.47;5.87;;;;;;;32.53;34.88;99560.09;5064802;28;20514;-80
2022/08/16 08:02:33;;;;;;;8.40;5.80;;;;;;;32.67;34.89;99564.88;5064247;28;20476;-80
2022/08/16 08:05:00;;;;;;;9.40;6.73;;;;;;;32.67;34.62;99562.09;5066884;28;20457;-82
2022/08/16 08:07:28;;;;;;;7.33;5.80;;;;;;;33.84;32.63;99563.63;5063744;28;20483;-81
2022/08/16 08:09:55;;;;;;;7.57;6.30;;;;;;;34.01;31.81;99566.56;5049359;28;20439;-81
2022/08/16 08:12:21;;;;;;;8.00;6.13;;;;;;;32.70;34.17;99569.81;5064665;28;20496;-81
2022/08/16 08:14:49;;;;;;;7.67;6.03;;;;;;;33.87;32.43;99572.16;5064286;28;20438;-81
2022/08/16 08:17:17;;;;;;;7.47;6.40;;;;;;;33.66;32.35;99570.94;5063035;28;20470;-81
2022/08/16 08:19:44;;;;;;;5.90;5.40;;;;;;;33.71;32.37;99573.63;5064909;28;20930;-81
2022/08/16 08:22:11;;;;;;;8.93;7.10;;;;;;;32.76;33.56;99574.94;5064124;28;20502;-81
2022/08/16 08:24:38;;;;;;;8.70;7.77;;;;;;;31.43;35.75;99585.22;5063519;28;20433;-81
2022/08/16 08:27:07;;;;;;;8.53;6.63;;;;;;;31.72;35.77;99583.19;5063294;28;20553;-81
2022/08/16 08:29:36;;;;;;;7.17;6.43;;;;;;;32.43;34.65;99580.47;5064106;28;20550;-81
2022/08/16 08:32:04;;;;;;;6.90;6.30;;;;;;;32.89;34.43;99583.56;5061981;28;20526;-81
2022/08/16 08:34:31;;;;;;;8.17;6.70;;;;;;;34.46;31.64;99580.44;5064716;28;20437;-80
2022/08/16 08:36:58;;;;;;;7.53;6.83;;;;;;;33.23;32.89;99583.22;5063689;28;20466;-80
2022/08/16 08:39:25;;;;;;;7.30;6.60;;;;;;;33.77;32.66;99589.81;5057620;28;20477;-79
2022/08/16 08:41:52;;;;;;;8.33;6.60;;;;;;;34.60;30.89;99585.09;5063915;28;20825;-80
2022/08/16 08:44:19;;;;;;;10.33;7.20;;;;;;;34.81;30.64;99586.22;5064656;28;20463;-80
2022/08/16 08:46:46;;;;;;;8.77;7.83;;;;;;;32.72;34.04;99584.97;5062389;28;20478;-81
2022/08/16 08:49:14;;;;;;;6.77;5.60;;;;;;;34.29;31.90;99586.69;5045977;28;20448;-81
2022/08/16 08:51:41;;;;;;;8.33;7.53;;;;;;;33.49;33.23;99596.50;5043658;28;20505;-80
2022/08/16 08:54:08;;;;;;;8.30;7.47;;;;;;;34.23;31.71;99595.47;5048026;28;20473;-80
2022/08/16 08:56:36;;;;;;;7.83;7.10;;;;;;;34.05;31.66;99602.81;5063288;28;20479;-80
2022/08/16 08:59:03;;;;;;;10.73;7.60;;;;;;;32.97;33.51;99596.72;5063733;28;20434;-80
2022/08/16 09:01:32;;;;;;;8.53;7.40;;;;;;;33.09;33.88;99602.56;5062378;28;20538;-81
2022/08/16 09:03:59;;;;;;;8.27;7.47;;;;;;;34.18;31.80;99595.56;5064526;28;20713;-80
2022/08/16 09:06:27;;;;;;;7.40;6.70;;;;;;;33.94;32.16;99602.22;5063531;28;20478;-81
2022/08/16 09:08:54;;;;;;;7.80;7.10;;;;;;;33.32;32.75;99602.69;5063413;28;20439;-80
2022/08/16 09:11:20;;;;;;;10.43;8.27;;;;;;;33.71;32.08;99604.13;5063169;28;20481;-80
2022/08/16 09:13:48;;;;;;;10.40;7.30;;;;;;;34.57;30.61;99605.16;5063847;28;20434;-80
2022/08/16 09:16:16;;;;;;;12.00;7.10;;;;;;;33.23;33.80;99597.06;5061756;28;20485;-80
2022/08/16 09:18:43;;;;;;;9.93;7.00;;;;;;;35.02;30.12;99602.34;5063872;28;20435;-79
2022/08/16 09:21:10;;;;;;;7.73;7.00;;;;;;;34.03;30.91;99600.34;5063133;28;20474;-80
2022/08/16 09:23:39;;;;;;;6.77;6.17;;;;;;;34.01;31.47;99587.91;5063253;28;20459;-80
2022/08/16 09:26:08;;;;;;;10.00;7.30;;;;;;;34.07;31.54;99601.34;5062722;28;20478;-81
2022/08/16 09:28:35;;;;;;;8.53;7.70;;;;;;;33.49;33.05;99599.28;5063354;28;20552;-80
2022/08/16 09:31:02;;;;;;;7.63;6.90;;;;;;;34.28;31.43;99589.78;5061180;28;20478;-81
2022/08/16 09:33:29;;;;;;;8.37;7.40;;;;;;;33.62;33.07;99597.63;5063745;28;20430;-80
2022/08/16 09:35:55;;;;;;;7.50;6.57;;;;;;;34.25;31.61;99591.25;5062787;28;20478;-81
2022/08/16 09:38:23;;;;;;;11.90;7.50;;;;;;;33.26;32.49;99598.38;5062925;28;20438;-80
2022/08/16 09:40:51;;;;;;;7.43;6.73;;;;;;;33.72;32.78;99601.03;5062620;28;20504;-79
2022/08/16 09:43:20;;;;;;;8.90;6.90;;;;;;;34.79;30.53;99596.84;5062631;28;20437;-81
2022/08/16 09:45:48;;;;;;;6.27;5.40;;;;;;;34.36;31.16;99599.28;5060521;28;20479;-80
2022/08/16 09:48:15;;;;;;;8.37;6.47;;;;;;;34.27;31.04;99593.69;5063113;28;20479;-81
2022/08/16 09:50:44;;;;;;;7.60;6.80;;;;;;;34.38;30.26;99586.75;5062497;28;20482;-81
2022/08/16 09:53:13;;;;;;;6.97;6.10;;;;;;;34.47;30.88;99587.63;5062419;28;20518;-82
2022/08/16 09:55:40;;;;;;;6.70;5.00;;;;;;;34.88;30.88;99592.13;5062307;28;20505;-81
2022/08/16 09:58:08;;;;;;;6.60;5.20;;;;;;;34.40;30.31;99592.81;5062744;28;20438;-81
2022/08/16 10:00:36;;;;;;;7.40;5.37;;;;;;;35.58;29.27;99594.34;5061665;28;20573;-82
2022/08/16 10:03:04;;;;;;;5.63;5.13;;;;;;;36.27;26.87;99599.19;5062620;28;20433;-81
2022/08/16 10:05:31;;;;;;;8.20;5.30;;;;;;;34.94;29.14;99594.78;5061831;28;20550;-81
2022/08/16 10:07:58;;;;;;;6.90;5.10;;;;;;;35.03;29.71;99596.47;5061947;28;21044;-81
2022/08/16 10:10:25;;;;;;;5.40;4.03;;;;;;;35.95;27.73;99595.72;5062024;28;20451;-82
2022/08/16 10:15:39;;;;;;;6.30;4.90;;;;;;;35.63;28.79;99594.22;5061300;28;20509;-82
2022/08/16 10:18:08;;;;;;;5.60;5.10;;;;;;;35.22;29.98;99590.66;5062756;28;20423;-81
2022/08/16 10:20:38;;;;;;;7.00;5.57;;;;;;;35.69;29.63;99594.84;5061677;28;20483;-81
2022/08/16 10:23:07;;;;;;;6.03;4.40;;;;;;;34.32;31.58;99597.19;5062066;28;20530;-80
2022/08/16 10:25:36;;;;;;;6.30;4.60;;;;;;;34.75;30.36;99604.16;5062445;28;20462;-81
2022/08/16 10:28:03;;;;;;;5.20;3.97;;;;;;;34.33;30.44;99611.84;5062331;28;20490;-81
2022/08/16 10:30:29;;;;;;;7.10;5.17;;;;;;;34.31;29.29;99598.28;5060667;28;20482;-81
2022/08/16 10:32:58;;;;;;;4.77;4.20;;;;;;;34.08;29.68;99600.22;5061844;28;20454;-80
2022/08/16 10:35:25;;;;;;;4.73;4.10;;;;;;;34.42;29.77;99598.03;5061882;28;20454;-80
2022/08/16 10:37:52;;;;;;;4.60;4.03;;;;;;;34.46;29.88;99597.09;5061489;28;20439;-80
2022/08/16 10:40:21;;;;;;;4.60;4.20;;;;;;;35.30;28.21;99602.16;5044286;28;20446;-81
2022/08/16 10:42:48;;;;;;;4.70;3.60;;;;;;;36.25;26.56;99601.50;5042680;28;20439;-80
2022/08/16 10:45:15;;;;;;;5.40;4.20;;;;;;;35.15;27.78;99601.38;5040815;28;20491;-81
2022/08/16 10:47:42;;;;;;;7.40;4.40;;;;;;;33.69;31.02;99609.97;5042481;28;20482;-81
2022/08/16 10:50:11;;;;;;;7.13;4.50;;;;;;;33.96;30.67;99600.75;5041849;28;20459;-80
2022/08/16 10:52:38;;;;;;;4.07;3.67;;;;;;;34.91;28.15;99603.75;5061919;28;20439;-81
2022/08/16 10:55:08;;;;;;;6.70;4.80;;;;;;;33.71;30.17;99604.13;5062696;28;20475;-82
2022/08/16 10:57:35;;;;;;;5.83;4.63;;;;;;;33.87;29.72;99599.88;5061658;28;20473;-81
2022/08/16 11:00:05;;;;;;;4.57;4.17;;;;;;;35.20;28.89;99604.03;5061114;28;20450;-81
2022/08/16 11:02:32;;;;;;;5.50;3.87;;;;;;;35.40;27.53;99605.44;5062171;28;20525;-82
2022/08/16 11:04:59;;;;;;;4.70;4.30;;;;;;;35.50;27.84;99600.72;5062576;28;20441;-81
2022/08/16 11:07:27;;;;;;;5.67;4.57;;;;;;;35.30;29.57;99610.47;5061381;28;20483;-81
2022/08/16 11:09:55;;;;;;;6.77;4.70;;;;;;;34.19;29.92;99603.59;5063403;28;20454;-81
2022/08/16 11:12:21;;;;;;;5.47;4.70;;;;;;;35.26;28.47;99599.19;5061487;28;20498;-80
2022/08/16 11:14:48;;;;;;;6.43;5.13;;;;;;;34.41;31.02;99607.50;5061330;28;20435;-81
2022/08/16 11:17:15;;;;;;;5.03;4.40;;;;;;;35.37;29.40;99613.59;5061050;28;20484;-80
2022/08/16 11:19:42;;;;;;;5.33;4.27;;;;;;;35.72;28.38;99608.16;5061782;28;20461;-82
2022/08/16 11:22:09;;;;;;;9.37;4.53;;;;;;;36.05;27.83;99614.06;5061305;28;20544;-81
2022/08/16 11:24:39;;;;;;;5.97;5.17;;;;;;;35.82;26.54;99607.84;5061912;28;20455;-80
2022/08/16 11:27:07;;;;;;;4.83;4.23;;;;;;;34.59;29.30;99611.22;5061015;28;20689;-81
2022/08/16 11:29:34;;;;;;;7.37;4.80;;;;;;;34.22;31.35;99608.53;5061252;28;20564;-81
2022/08/16 11:32:03;;;;;;;5.07;4.57;;;;;;;34.77;29.61;99603.84;5060894;28;20557;-81
2022/08/16 11:34:30;;;;;;;8.97;4.70;;;;;;;34.97;30.34;99610.81;5062376;28;20438;-81